Time;durP1;ratioP1;P1;durP2;ratioP2;P2;SDS_P1;SDS_P2;PMS_P1;PMS_P2;Temp;Humidity;BMP_temperature;BMP_pressure;BME280_temperature;BME280_humidity;BME280_pressure;Samples;Min_cycle;Max_cycle;Signal;HPM_P1;HPM_P2
2022/03/23 00:01:21;;;;;;;82.57;48.10;;;7.30;99.90;;;;;;4978358;28;20525;-73
2022/03/23 00:03:47;;;;;;;74.93;48.03;;;7.20;99.90;;;;;;4995630;28;20048;-74
2022/03/23 00:06:13;;;;;;;86.00;50.67;;;7.20;99.90;;;;;;4978207;28;20093;-73
2022/03/23 00:08:39;;;;;;;81.50;48.28;;;7.10;99.90;;;;;;4995556;28;20124;-73
2022/03/23 00:11:05;;;;;;;76.10;47.72;;;7.10;99.90;;;;;;4995310;28;20452;-73
2022/03/23 00:13:31;;;;;;;74.53;47.88;;;7.00;99.90;;;;;;4995450;28;20050;-74
2022/03/23 00:15:56;;;;;;;79.43;49.10;;;7.00;99.90;;;;;;4995555;28;20038;-74
2022/03/23 00:18:22;;;;;;;81.47;49.25;;;7.00;99.90;;;;;;4978148;28;20053;-75
2022/03/23 00:20:48;;;;;;;80.60;47.88;;;6.90;99.90;;;;;;4978259;28;20490;-75
2022/03/23 00:23:14;;;;;;;75.63;48.30;;;6.90;99.90;;;;;;4995291;28;20042;-72
2022/03/23 00:25:39;;;;;;;88.72;51.15;;;6.90;99.90;;;;;;4962483;28;20058;-75
2022/03/23 00:28:07;;;;;;;82.63;49.15;;;6.90;99.90;;;;;;4975172;28;20624;-74
2022/03/23 00:30:33;;;;;;;81.78;48.58;;;6.90;99.90;;;;;;4985016;28;20039;-74
2022/03/23 00:33:02;;;;;;;83.45;49.25;;;6.80;99.90;;;;;;4995137;28;20058;-74
2022/03/23 00:35:32;;;;;;;79.68;49.33;;;6.80;99.90;;;;;;4995317;28;20379;-75
2022/03/23 00:37:58;;;;;;;80.85;47.92;;;6.80;99.90;;;;;;4995442;28;20086;-73
2022/03/23 00:40:24;;;;;;;83.07;49.28;;;6.70;99.90;;;;;;4978147;28;20082;-73
2022/03/23 00:42:50;;;;;;;79.88;48.13;;;6.70;99.90;;;;;;4994998;28;20470;-75
2022/03/23 00:45:17;;;;;;;75.80;47.72;;;6.70;99.90;;;;;;4996007;28;20129;-75
2022/03/23 00:47:45;;;;;;;73.18;45.97;;;6.90;99.90;;;;;;4995423;28;20054;-74
2022/03/23 00:50:11;;;;;;;83.28;49.22;;;6.70;99.90;;;;;;4995049;28;20054;-73
2022/03/23 00:52:37;;;;;;;79.38;48.08;;;6.60;99.90;;;;;;4962204;28;20057;-75
2022/03/23 00:55:04;;;;;;;80.00;47.78;;;6.60;99.90;;;;;;4995088;28;20042;-75
2022/03/23 00:57:30;;;;;;;74.30;46.13;;;6.60;99.90;;;;;;4996723;28;20057;-73
2022/03/23 00:59:55;;;;;;;80.65;47.78;;;6.60;99.90;;;;;;4994313;28;20042;-73
2022/03/23 01:02:21;;;;;;;80.32;46.20;;;6.60;99.90;;;;;;4998925;28;20090;-75
2022/03/23 01:04:47;;;;;;;78.75;45.88;;;6.50;99.90;;;;;;4998710;28;20046;-73
2022/03/23 01:07:12;;;;;;;71.97;44.90;;;6.50;99.90;;;;;;4982499;28;20046;-74
2022/03/23 01:09:38;;;;;;;88.75;48.58;;;6.50;99.90;;;;;;4981662;28;20531;-73
2022/03/23 01:12:04;;;;;;;77.72;47.22;;;6.40;99.90;;;;;;4998757;28;20054;-74
2022/03/23 01:14:29;;;;;;;82.18;49.22;;;6.40;99.90;;;;;;4982011;28;20073;-73
2022/03/23 01:16:55;;;;;;;81.95;47.28;;;6.40;99.90;;;;;;4981139;28;20046;-72
2022/03/23 01:19:25;;;;;;;84.88;48.67;;;6.30;99.90;;;;;;4981311;28;20378;-74
2022/03/23 01:21:51;;;;;;;78.78;47.03;;;6.50;99.90;;;;;;4998429;28;20046;-72
2022/03/23 01:24:17;;;;;;;86.82;49.78;;;6.30;99.90;;;;;;4999026;28;20116;-73
2022/03/23 01:26:42;;;;;;;78.25;47.67;;;6.20;99.90;;;;;;4998675;28;20078;-74
2022/03/23 01:29:08;;;;;;;78.22;46.80;;;6.20;99.90;;;;;;4985450;28;20050;-73
2022/03/23 01:31:33;;;;;;;88.40;47.88;;;6.20;99.90;;;;;;4977952;28;20116;-74
2022/03/23 01:33:59;;;;;;;81.22;49.25;;;6.20;99.90;;;;;;4998312;28;20120;-73
2022/03/23 01:36:30;;;;;;;82.57;48.30;;;6.10;99.90;;;;;;4998027;28;20050;-74
2022/03/23 01:38:56;;;;;;;81.78;48.17;;;6.10;99.90;;;;;;4998274;28;20109;-74
2022/03/23 01:41:22;;;;;;;85.22;49.75;;;6.10;99.90;;;;;;4998173;28;20034;-73
2022/03/23 01:43:48;;;;;;;84.65;48.70;;;6.00;99.90;;;;;;4980579;28;20057;-75
2022/03/23 01:46:18;;;;;;;80.57;47.85;;;6.00;99.90;;;;;;4998313;28;20101;-73
2022/03/23 01:48:47;;;;;;;80.53;48.95;;;6.00;99.90;;;;;;4980668;28;20443;-74
2022/03/23 01:51:13;;;;;;;76.68;45.53;;;5.90;99.90;;;;;;4980868;28;20455;-74
2022/03/23 01:53:40;;;;;;;79.68;46.78;;;5.90;99.90;;;;;;4980888;28;20046;-74
2022/03/23 01:56:09;;;;;;;77.63;45.08;;;5.90;99.90;;;;;;4997930;28;20085;-74
2022/03/23 01:58:36;;;;;;;81.68;48.20;;;5.90;99.90;;;;;;4972615;28;20400;-72
2022/03/23 02:01:02;;;;;;;82.63;48.65;;;5.90;99.90;;;;;;4978522;28;20372;-75
2022/03/23 02:03:28;;;;;;;82.43;47.10;;;5.80;99.90;;;;;;4977984;28;20047;-73
2022/03/23 02:05:53;;;;;;;72.63;44.88;;;5.70;99.90;;;;;;4961575;28;20050;-75
2022/03/23 02:08:19;;;;;;;82.88;48.25;;;5.70;99.90;;;;;;4960661;28;20051;-74
2022/03/23 02:10:45;;;;;;;76.53;46.88;;;5.60;99.90;;;;;;4960740;28;20070;-73
2022/03/23 02:13:11;;;;;;;70.60;43.63;;;5.60;99.90;;;;;;4977225;28;20043;-74
2022/03/23 02:15:38;;;;;;;75.82;46.00;;;5.60;99.90;;;;;;4961202;28;20341;-74
2022/03/23 02:18:06;;;;;;;77.40;47.72;;;5.60;99.90;;;;;;4977988;28;20329;-75
2022/03/23 02:20:31;;;;;;;90.35;50.17;;;5.60;99.90;;;;;;4978073;28;20122;-73
2022/03/23 02:22:58;;;;;;;78.68;47.47;;;5.50;99.90;;;;;;4961104;28;20137;-75
2022/03/23 02:25:26;;;;;;;79.03;48.70;;;5.50;99.90;;;;;;4978054;28;20065;-73
2022/03/23 02:27:53;;;;;;;81.25;47.85;;;5.50;99.90;;;;;;4960781;28;20043;-73
2022/03/23 02:30:19;;;;;;;82.93;49.50;;;5.50;99.90;;;;;;4977893;28;20047;-74
2022/03/23 02:32:45;;;;;;;80.25;46.47;;;5.40;99.90;;;;;;4977852;28;20470;-74
2022/03/23 02:35:15;;;;;;;76.95;46.60;;;5.40;99.90;;;;;;4977822;28;20042;-73
2022/03/23 02:37:41;;;;;;;78.05;47.38;;;5.40;99.90;;;;;;4960564;28;20444;-73
2022/03/23 02:40:08;;;;;;;87.25;48.58;;;5.40;99.90;;;;;;4977757;28;20054;-74
2022/03/23 02:42:38;;;;;;;86.82;50.53;;;5.30;99.90;;;;;;4960169;28;20054;-74
2022/03/23 02:45:06;;;;;;;82.93;51.75;;;5.30;99.90;;;;;;4977488;28;20065;-74
2022/03/23 02:47:31;;;;;;;81.95;47.05;;;5.30;99.90;;;;;;4978135;28;20065;-73
2022/03/23 02:49:57;;;;;;;83.88;47.28;;;5.20;99.90;;;;;;4961613;28;20054;-73
2022/03/23 02:52:23;;;;;;;78.97;48.35;;;5.20;99.90;;;;;;4960491;28;20174;-75
2022/03/23 03:03:41;;;;;;;83.97;48.42;;;5.10;99.90;;;;;;4959935;28;20055;-75
2022/03/23 03:06:07;;;;;;;86.53;48.03;;;5.10;99.90;;;;;;4977371;28;20053;-73
2022/03/23 03:08:48;;;;;;;83.93;48.95;;;5.00;99.90;;;;;;4977200;28;20406;-75
2022/03/23 03:11:19;;;;;;;91.13;49.80;;;5.00;99.90;;;;;;4977104;28;20058;-75
2022/03/23 03:13:50;;;;;;;83.82;48.38;;;5.00;99.90;;;;;;4977172;28;20494;-73
2022/03/23 03:16:16;;;;;;;95.25;51.78;;;5.00;99.90;;;;;;4977015;28;20039;-74
2022/03/23 03:18:42;;;;;;;95.90;53.00;;;5.00;99.90;;;;;;4976657;28;20443;-72
2022/03/23 03:21:09;;;;;;;88.82;50.50;;;5.00;99.90;;;;;;4987910;28;20061;-73
2022/03/23 03:23:41;;;;;;;82.68;49.15;;;5.30;99.90;;;;;;4963394;28;20049;-74
2022/03/23 03:26:07;;;;;;;89.63;50.90;;;5.00;99.90;;;;;;4992203;28;20050;-74
2022/03/23 03:28:34;;;;;;;87.15;50.72;;;4.90;99.90;;;;;;4978832;28;20451;-74
2022/03/23 03:31:02;;;;;;;85.13;49.35;;;4.90;99.90;;;;;;4995605;28;20479;-73
2022/03/23 03:33:28;;;;;;;89.70;50.25;;;4.90;99.90;;;;;;4979363;28;20116;-75
2022/03/23 03:35:53;;;;;;;87.22;49.78;;;4.80;99.90;;;;;;4995975;28;20402;-74
2022/03/23 03:38:19;;;;;;;84.95;48.65;;;4.80;99.90;;;;;;4979172;28;20046;-74
2022/03/23 03:40:45;;;;;;;84.50;49.50;;;4.80;99.90;;;;;;4996318;28;20054;-73
2022/03/23 03:43:11;;;;;;;81.22;49.95;;;4.70;99.90;;;;;;4995258;28;20459;-74
2022/03/23 03:45:36;;;;;;;83.68;48.58;;;4.70;99.90;;;;;;4979332;28;20046;-75
2022/03/23 03:48:02;;;;;;;81.55;49.33;;;4.70;99.90;;;;;;4978756;28;20050;-74
2022/03/23 03:50:28;;;;;;;79.10;48.40;;;4.90;99.90;;;;;;4976342;28;20039;-74
2022/03/23 03:52:55;;;;;;;83.22;49.08;;;4.60;99.90;;;;;;4969359;28;20034;-75
2022/03/23 03:55:20;;;;;;;81.03;48.60;;;4.70;99.90;;;;;;4978691;28;20042;-73
2022/03/23 03:57:47;;;;;;;77.75;47.50;;;4.60;99.90;;;;;;4978462;28;20057;-75
2022/03/23 04:00:13;;;;;;;84.90;48.22;;;4.60;99.90;;;;;;4995576;28;20046;-75
2022/03/23 04:02:39;;;;;;;87.57;50.65;;;4.60;99.90;;;;;;4995430;28;20060;-72
2022/03/23 04:05:05;;;;;;;87.03;49.88;;;4.60;99.90;;;;;;4978721;28;20046;-73
2022/03/23 04:07:34;;;;;;;87.72;51.28;;;4.60;99.90;;;;;;4995532;28;20038;-74
2022/03/23 04:10:00;;;;;;;90.95;50.00;;;4.50;99.90;;;;;;4978530;28;20068;-75
2022/03/23 04:12:26;;;;;;;85.03;50.40;;;4.50;99.90;;;;;;4978373;28;20522;-74
2022/03/23 04:14:52;;;;;;;93.60;52.08;;;4.50;99.90;;;;;;4978835;28;20125;-73
2022/03/23 04:17:17;;;;;;;88.72;50.67;;;4.50;99.90;;;;;;4978512;28;20146;-72
2022/03/23 04:19:43;;;;;;;81.15;49.15;;;4.40;99.90;;;;;;4993251;28;20086;-73
2022/03/23 04:22:09;;;;;;;95.43;52.70;;;4.50;99.90;;;;;;4959187;28;20050;-72
2022/03/23 04:24:34;;;;;;;91.75;51.60;;;4.40;99.90;;;;;;4959728;28;20468;-74
2022/03/23 04:27:00;;;;;;;84.22;52.10;;;4.40;99.90;;;;;;4958160;28;20043;-72
2022/03/23 04:29:26;;;;;;;98.55;52.83;;;4.40;99.90;;;;;;4975308;28;20129;-73
2022/03/23 04:31:52;;;;;;;89.13;50.58;;;4.40;99.90;;;;;;4976289;28;20050;-73
2022/03/23 04:34:18;;;;;;;84.68;49.00;;;4.40;99.90;;;;;;4980013;28;20054;-73
2022/03/23 04:36:44;;;;;;;92.78;50.90;;;4.30;99.90;;;;;;4980132;28;20061;-73
2022/03/23 04:39:09;;;;;;;83.15;48.20;;;4.90;99.90;;;;;;4980035;28;20051;-75
2022/03/23 04:41:35;;;;;;;87.25;49.35;;;4.30;99.90;;;;;;4979839;28;20047;-75
2022/03/23 04:44:01;;;;;;;77.68;46.97;;;4.30;99.90;;;;;;4979698;28;20125;-73
2022/03/23 04:46:26;;;;;;;81.00;48.60;;;4.30;99.90;;;;;;4962457;28;20455;-73
2022/03/23 04:48:52;;;;;;;88.13;51.00;;;4.30;99.90;;;;;;4963099;28;20451;-74
2022/03/23 04:51:17;;;;;;;81.97;48.08;;;4.20;99.90;;;;;;4994014;28;20069;-75
2022/03/23 04:53:43;;;;;;;86.40;48.70;;;4.20;99.90;;;;;;4999088;28;20046;-74
2022/03/23 04:56:09;;;;;;;81.07;48.33;;;4.20;99.90;;;;;;4999209;28;20054;-74
2022/03/23 04:58:34;;;;;;;85.38;49.85;;;4.10;99.90;;;;;;5004045;28;20386;-72
2022/03/23 05:01:01;;;;;;;93.85;52.58;;;4.10;99.90;;;;;;5000720;28;20390;-73
2022/03/23 05:03:27;;;;;;;87.78;50.78;;;4.10;99.90;;;;;;5000696;28;20042;-74
2022/03/23 05:05:52;;;;;;;85.78;51.15;;;4.10;99.90;;;;;;4969033;28;20055;-72
2022/03/23 05:08:18;;;;;;;88.30;50.33;;;4.10;99.90;;;;;;4981041;28;20474;-72
2022/03/23 05:10:44;;;;;;;93.80;51.08;;;4.10;99.90;;;;;;4998623;28;20470;-72
2022/03/23 05:13:11;;;;;;;91.65;52.55;;;4.00;99.90;;;;;;4981349;28;20112;-74
2022/03/23 05:15:37;;;;;;;91.70;50.90;;;4.00;99.90;;;;;;4998552;28;20162;-73
2022/03/23 05:18:03;;;;;;;91.78;52.78;;;4.00;99.90;;;;;;4981444;28;20050;-73
2022/03/23 05:20:29;;;;;;;89.32;52.42;;;4.00;99.90;;;;;;4998751;28;20042;-72
2022/03/23 05:22:55;;;;;;;91.40;50.85;;;4.00;99.90;;;;;;4998288;28;20048;-73
2022/03/23 05:25:21;;;;;;;94.18;54.53;;;3.90;99.90;;;;;;4981507;28;20337;-73
2022/03/23 05:27:47;;;;;;;89.78;50.38;;;4.00;99.90;;;;;;4979263;28;20449;-73
2022/03/23 05:30:13;;;;;;;91.72;50.80;;;4.00;99.90;;;;;;4998682;28;20057;-74
2022/03/23 05:32:40;;;;;;;85.55;49.97;;;4.00;99.90;;;;;;4980911;28;20046;-74
2022/03/23 05:35:08;;;;;;;83.82;50.50;;;3.90;99.90;;;;;;4981556;28;20522;-73
2022/03/23 05:37:33;;;;;;;91.80;50.70;;;3.90;99.90;;;;;;4997773;28;20485;-72
2022/03/23 05:39:59;;;;;;;90.43;51.17;;;3.90;99.90;;;;;;4980823;28;20050;-74
2022/03/23 05:42:24;;;;;;;92.78;51.60;;;3.90;99.90;;;;;;4997870;28;20462;-72
2022/03/23 05:44:50;;;;;;;89.15;51.38;;;3.90;99.90;;;;;;4997024;28;20048;-71
2022/03/23 05:47:15;;;;;;;98.10;54.78;;;3.90;99.90;;;;;;4997775;28;20108;-73
2022/03/23 05:49:41;;;;;;;86.53;50.15;;;3.90;99.90;;;;;;4980847;28;20058;-74
2022/03/23 05:52:07;;;;;;;90.13;52.47;;;4.00;99.90;;;;;;4980859;28;20042;-71
2022/03/23 05:54:32;;;;;;;104.72;57.30;;;4.00;99.90;;;;;;4997676;28;20027;-74
2022/03/23 05:57:02;;;;;;;102.60;58.80;;;4.00;99.90;;;;;;4961514;28;20034;-71
2022/03/23 05:59:29;;;;;;;98.22;54.60;;;4.10;99.90;;;;;;4978382;28;20057;-73
2022/03/23 06:01:54;;;;;;;97.38;53.78;;;4.10;99.90;;;;;;4961994;28;20058;-69
2022/03/23 06:04:21;;;;;;;95.90;54.10;;;4.20;99.90;;;;;;4961721;28;20408;-73
2022/03/23 06:06:47;;;;;;;95.00;55.40;;;4.20;99.90;;;;;;4977342;28;20050;-74
2022/03/23 06:09:12;;;;;;;103.65;58.40;;;4.20;99.90;;;;;;4978139;28;20043;-74
2022/03/23 06:11:39;;;;;;;97.85;55.58;;;4.30;99.90;;;;;;4961111;28;20217;-74
2022/03/23 06:14:04;;;;;;;96.00;53.30;;;4.30;99.90;;;;;;4978126;28;20047;-75
2022/03/23 06:16:30;;;;;;;107.70;57.95;;;4.90;99.90;;;;;;4961608;28;20053;-73
2022/03/23 06:18:56;;;;;;;100.10;55.55;;;4.50;99.90;;;;;;4978048;28;20038;-75
2022/03/23 06:21:21;;;;;;;104.07;55.88;;;4.50;99.90;;;;;;4961017;28;20057;-73
2022/03/23 06:23:47;;;;;;;100.30;54.75;;;4.60;99.90;;;;;;4960715;28;20057;-74
2022/03/23 06:26:13;;;;;;;93.90;53.00;;;4.70;99.90;;;;;;4963759;28;20054;-72
2022/03/23 06:28:38;;;;;;;94.28;55.47;;;4.70;99.90;;;;;;4980510;28;20054;-73
2022/03/23 06:31:04;;;;;;;99.05;56.22;;;4.80;99.90;;;;;;4983377;28;20057;-73
2022/03/23 06:33:29;;;;;;;94.47;52.40;;;4.80;99.90;;;;;;4967393;28;20097;-73
2022/03/23 06:35:55;;;;;;;98.18;56.38;;;4.90;99.90;;;;;;4992344;28;20097;-73
2022/03/23 06:38:21;;;;;;;94.55;54.10;;;5.00;99.90;;;;;;4959103;28;20057;-72
2022/03/23 06:40:46;;;;;;;90.88;54.20;;;5.10;99.90;;;;;;4991111;28;20038;-73
2022/03/23 06:43:12;;;;;;;94.32;53.05;;;5.10;99.90;;;;;;4996455;28;20046;-75
2022/03/23 06:45:42;;;;;;;94.45;52.92;;;5.20;99.90;;;;;;4996756;28;20477;-73
2022/03/23 06:48:11;;;;;;;103.93;57.00;;;5.30;99.90;;;;;;4997091;28;20501;-73
2022/03/23 06:50:37;;;;;;;101.22;57.50;;;5.40;99.90;;;;;;4979514;28;20129;-71
2022/03/23 06:53:03;;;;;;;98.25;55.63;;;5.50;99.90;;;;;;4987920;28;20262;-73
2022/03/23 06:55:29;;;;;;;96.22;55.80;;;5.70;99.90;;;;;;4998543;28;20046;-74
2022/03/23 06:57:55;;;;;;;97.65;56.53;;;5.80;99.90;;;;;;4995671;28;20112;-74
2022/03/23 07:00:21;;;;;;;99.68;55.50;;;5.90;99.90;;;;;;4996509;28;20042;-74
2022/03/23 07:02:48;;;;;;;99.78;54.85;;;6.00;99.90;;;;;;4996311;28;20057;-74
2022/03/23 07:05:16;;;;;;;102.97;57.63;;;6.20;99.90;;;;;;4979538;28;20054;-73
2022/03/23 07:09:31;;;;;;;101.63;57.35;;;6.30;99.90;;;;;;5000926;28;20189;-68
2022/03/23 07:10:28;;;;;;;94.38;54.05;;;6.40;99.90;;;;;;4997430;28;20050;-73
2022/03/23 07:12:55;;;;;;;90.82;55.53;;;6.60;99.90;;;;;;4996348;28;20079;-72
2022/03/23 07:15:27;;;;;;;86.25;52.97;;;6.80;99.90;;;;;;4996182;28;20363;-75
2022/03/23 07:17:53;;;;;;;90.45;55.65;;;6.90;99.90;;;;;;4996087;28;20121;-73
2022/03/23 07:20:19;;;;;;;93.43;53.88;;;7.10;99.90;;;;;;4978930;28;20137;-72
2022/03/23 07:22:45;;;;;;;73.28;47.63;;;7.20;99.90;;;;;;4996347;28;20054;-74
2022/03/23 07:25:11;;;;;;;68.22;43.75;;;7.40;99.90;;;;;;4962034;28;20107;-72
2022/03/23 07:27:37;;;;;;;74.57;46.47;;;7.60;99.90;;;;;;4993728;28;20057;-74
2022/03/23 07:30:04;;;;;;;75.93;47.13;;;7.80;99.90;;;;;;4993417;28;20046;-73
2022/03/23 07:32:29;;;;;;;71.15;43.25;;;7.90;99.90;;;;;;4994489;28;20056;-74
2022/03/23 07:34:55;;;;;;;73.22;45.05;;;8.10;99.90;;;;;;4997714;28;20508;-73
2022/03/23 07:37:21;;;;;;;65.15;42.88;;;8.20;99.90;;;;;;4988873;28;20062;-73
2022/03/23 07:39:46;;;;;;;70.80;41.53;;;8.30;99.90;;;;;;4984276;28;20045;-74
2022/03/23 07:42:12;;;;;;;68.90;43.97;;;8.40;99.90;;;;;;4998067;28;20067;-73
2022/03/23 07:44:38;;;;;;;69.95;42.63;;;8.60;99.90;;;;;;5015711;28;20446;-72
2022/03/23 07:47:10;;;;;;;61.75;40.35;;;8.60;99.90;;;;;;5015260;28;20058;-72
2022/03/23 07:49:35;;;;;;;62.13;39.35;;;8.70;99.90;;;;;;4973700;28;20105;-72
2022/03/23 07:52:02;;;;;;;58.50;39.22;;;8.80;99.90;;;;;;4995021;28;20467;-73
2022/03/23 07:54:28;;;;;;;57.15;38.55;;;8.90;99.90;;;;;;4988803;28;20117;-73
2022/03/23 07:56:53;;;;;;;53.13;35.83;;;9.00;99.90;;;;;;4991449;28;20078;-72
2022/03/23 07:59:19;;;;;;;59.15;36.85;;;9.10;99.90;;;;;;4978707;28;20371;-74
2022/03/23 08:01:44;;;;;;;55.70;36.05;;;9.20;99.90;;;;;;4994514;28;20057;-72
2022/03/23 08:04:10;;;;;;;54.58;37.20;;;9.30;99.90;;;;;;4985015;28;20051;-73
2022/03/23 08:06:36;;;;;;;53.03;33.70;;;9.30;99.90;;;;;;4996044;28;20355;-74
2022/03/23 08:09:03;;;;;;;54.05;33.38;;;9.40;99.90;;;;;;4968029;28;20043;-74
2022/03/23 08:11:30;;;;;;;55.03;35.38;;;9.50;99.90;;;;;;4966696;28;20471;-74
2022/03/23 08:13:56;;;;;;;51.40;35.67;;;9.70;99.90;;;;;;4982166;28;20038;-73
2022/03/23 08:16:23;;;;;;;49.53;33.83;;;9.80;99.90;;;;;;5003603;28;20049;-72
2022/03/23 08:18:48;;;;;;;68.45;33.63;;;9.80;99.90;;;;;;4996671;28;20438;-73
2022/03/23 08:21:16;;;;;;;66.88;34.60;;;10.00;99.90;;;;;;5014754;28;20125;-72
2022/03/23 08:23:42;;;;;;;48.05;32.22;;;10.10;99.90;;;;;;4992733;28;20046;-73
2022/03/23 08:26:10;;;;;;;46.08;32.17;;;10.20;99.90;;;;;;4988690;28;20053;-74
2022/03/23 08:28:38;;;;;;;46.75;32.45;;;10.30;99.90;;;;;;4959305;28;20051;-73
2022/03/23 08:31:03;;;;;;;46.78;31.98;;;10.30;99.90;;;;;;4990164;28;20395;-75
2022/03/23 08:33:32;;;;;;;45.10;31.42;;;10.40;99.90;;;;;;4976956;28;20051;-73
2022/03/23 08:35:59;;;;;;;44.80;29.40;;;10.50;99.90;;;;;;4990882;28;20055;-69
2022/03/23 08:38:24;;;;;;;41.45;29.40;;;10.60;99.90;;;;;;4989037;28;20054;-73
2022/03/23 08:40:50;;;;;;;43.92;27.98;;;10.80;99.90;;;;;;4976283;28;20042;-73
2022/03/23 08:43:16;;;;;;;41.30;26.50;;;10.80;99.90;;;;;;4984299;28;20379;-74
2022/03/23 08:45:42;;;;;;;40.83;28.27;;;10.90;99.90;;;;;;4986608;28;20331;-74
2022/03/23 08:48:09;;;;;;;35.35;25.48;;;11.10;99.90;;;;;;4996668;28;20053;-73
2022/03/23 08:50:35;;;;;;;39.72;26.33;;;11.30;99.90;;;;;;4966266;28;20507;-72
2022/03/23 08:53:02;;;;;;;36.63;26.02;;;11.50;99.90;;;;;;4993971;28;20038;-73
2022/03/23 08:55:28;;;;;;;36.28;25.73;;;11.50;99.90;;;;;;4993278;28;20057;-74
2022/03/23 08:57:54;;;;;;;35.13;24.60;;;11.60;99.90;;;;;;4988285;28;20375;-72
2022/03/23 09:00:20;;;;;;;34.17;23.77;;;11.70;99.90;;;;;;4998010;28;20462;-74
2022/03/23 09:02:46;;;;;;;32.63;23.90;;;11.80;99.90;;;;;;5014332;28;20054;-73
2022/03/23 09:05:14;;;;;;;34.40;24.95;;;12.00;99.90;;;;;;4985134;28;20341;-72
2022/03/23 09:07:40;;;;;;;36.28;23.90;;;12.10;99.90;;;;;;4977882;28;20042;-74
2022/03/23 09:10:07;;;;;;;32.35;22.65;;;12.30;99.90;;;;;;4994432;28;20117;-72
2022/03/23 09:12:33;;;;;;;35.15;22.58;;;12.30;99.90;;;;;;4990854;28;20382;-74
2022/03/23 09:14:58;;;;;;;32.45;22.80;;;12.40;99.90;;;;;;4985353;28;20054;-73
2022/03/23 09:17:24;;;;;;;32.50;22.88;;;12.60;99.90;;;;;;4984311;28;20051;-74
2022/03/23 09:19:49;;;;;;;32.15;22.83;;;12.70;99.90;;;;;;4976628;28;20073;-71
2022/03/23 09:22:15;;;;;;;34.67;22.52;;;12.70;99.90;;;;;;4981650;28;20105;-73
2022/03/23 09:24:41;;;;;;;33.58;22.73;;;12.90;99.80;;;;;;4962435;28;20074;-75
2022/03/23 09:27:06;;;;;;;36.03;24.38;;;13.00;99.90;;;;;;4976483;28;20051;-73
2022/03/23 09:29:32;;;;;;;30.20;23.08;;;13.10;99.90;;;;;;4978953;28;20376;-74
2022/03/23 09:31:58;;;;;;;33.97;24.83;;;13.20;99.90;;;;;;4961518;28;20046;-74
2022/03/23 09:34:24;;;;;;;33.78;23.52;;;13.30;99.80;;;;;;4978858;28;20051;-74
2022/03/23 09:39:34;;;;;;;34.00;24.70;;;13.50;99.90;;;;;;4979191;28;20371;-74
2022/03/23 09:42:00;;;;;;;34.20;22.33;;;13.60;99.90;;;;;;4978689;28;20043;-75
2022/03/23 09:44:30;;;;;;;32.40;24.77;;;13.70;99.70;;;;;;4978315;28;20127;-73
2022/03/23 09:46:58;;;;;;;39.15;24.55;;;13.80;99.60;;;;;;4961786;28;20050;-73
2022/03/23 09:49:25;;;;;;;36.72;23.95;;;13.90;99.10;;;;;;4961909;28;20110;-74
2022/03/23 09:51:53;;;;;;;42.60;24.50;;;14.00;98.20;;;;;;4961754;28;20065;-75
2022/03/23 09:54:20;;;;;;;35.30;23.55;;;14.10;97.70;;;;;;4979419;28;20047;-76
2022/03/23 09:56:46;;;;;;;32.80;23.80;;;14.20;96.30;;;;;;4978383;28;20098;-73
2022/03/23 09:59:11;;;;;;;34.58;23.35;;;14.30;96.30;;;;;;4962005;28;20062;-74
2022/03/23 10:02:03;;;;;;;35.40;23.60;;;14.40;96.60;;;;;;4986543;28;20057;-73
2022/03/23 10:05:16;;;;;;;32.38;19.95;;;14.50;96.40;;;;;;4997637;28;20054;-76
2022/03/23 10:08:18;;;;;;;26.08;19.30;;;14.70;87.10;;;;;;4980293;28;20042;-75
2022/03/23 10:11:15;;;;;;;29.10;20.10;;;14.80;79.20;;;;;;4977375;28;20085;-74
2022/03/23 10:14:25;;;;;;;25.67;19.38;;;14.80;81.40;;;;;;4996898;28;20110;-75
2022/03/23 10:17:28;;;;;;;28.63;17.35;;;14.90;75.00;;;;;;4980549;28;20137;-73
2022/03/23 10:19:55;;;;;;;23.45;17.48;;;14.90;74.70;;;;;;4980712;28;20050;-75
2022/03/23 10:22:27;;;;;;;20.35;15.98;;;15.10;76.60;;;;;;4997069;28;20046;-75
2022/03/23 10:24:53;;;;;;;23.23;16.25;;;15.20;75.70;;;;;;4978143;28;20203;-73
2022/03/23 10:27:22;;;;;;;20.95;15.88;;;15.30;71.80;;;;;;4961354;28;20080;-73
2022/03/23 10:29:52;;;;;;;20.92;15.57;;;15.30;70.70;;;;;;4976648;28;20059;-75
2022/03/23 10:32:20;;;;;;;21.38;16.45;;;15.40;66.70;;;;;;4977614;28;20043;-73
2022/03/23 10:34:51;;;;;;;19.00;15.98;;;15.50;63.80;;;;;;4961173;28;20055;-74
2022/03/23 10:37:32;;;;;;;18.67;15.77;;;15.50;64.90;;;;;;4978044;28;20050;-75
2022/03/23 10:40:00;;;;;;;20.35;16.33;;;15.60;65.90;;;;;;4977823;28;20055;-76
2022/03/23 10:42:28;;;;;;;32.15;15.48;;;15.70;60.80;;;;;;4977773;28;20149;-76
2022/03/23 10:45:12;;;;;;;21.15;15.73;;;15.70;61.60;;;;;;4960787;28;20454;-74
2022/03/23 10:47:39;;;;;;;17.90;13.93;;;15.80;61.00;;;;;;4961168;28;20058;-75
2022/03/23 10:50:11;;;;;;;20.25;15.50;;;16.00;64.30;;;;;;4976852;28;20065;-75
2022/03/23 10:52:56;;;;;;;20.23;15.10;;;16.10;63.20;;;;;;4978544;28;20129;-74
2022/03/23 10:55:24;;;;;;;17.73;13.27;;;16.20;59.70;;;;;;4996689;28;20046;-73
2022/03/23 10:58:18;;;;;;;25.05;14.30;;;16.30;59.20;;;;;;4964147;28;20047;-76
2022/03/23 11:00:48;;;;;;;18.70;14.13;;;16.40;62.10;;;;;;4997021;28;20054;-74
2022/03/23 11:03:14;;;;;;;22.88;14.35;;;16.50;63.10;;;;;;4979539;28;20050;-74
2022/03/23 11:05:48;;;;;;;20.20;14.23;;;16.50;62.10;;;;;;4996439;28;20101;-75
2022/03/23 11:08:24;;;;;;;30.10;15.63;;;16.60;63.30;;;;;;4979490;28;20050;-76
2022/03/23 11:15:46;;;;;;;26.55;15.13;;;16.70;61.50;;;;;;4996581;28;20046;-74
2022/03/23 11:16:51;;;;;;;22.80;14.43;;;16.80;63.50;;;;;;4995985;28;20043;-75
2022/03/23 11:19:19;;;;;;;22.73;15.13;;;16.90;63.70;;;;;;4979763;28;20179;-75
2022/03/23 11:22:06;;;;;;;23.95;15.40;;;16.90;62.10;;;;;;4996580;28;20109;-75
2022/03/23 11:24:37;;;;;;;26.55;15.15;;;17.00;59.30;;;;;;4959805;28;20129;-75
2022/03/23 11:27:06;;;;;;;23.92;15.00;;;17.00;64.10;;;;;;4977228;28;20046;-73
2022/03/23 11:29:33;;;;;;;25.00;13.85;;;17.00;60.80;;;;;;4959993;28;20051;-73
2022/03/23 11:32:07;;;;;;;23.88;13.43;;;17.10;57.30;;;;;;4976669;28;20043;-75
2022/03/23 11:34:37;;;;;;;20.83;12.93;;;17.00;59.40;;;;;;4976316;28;20057;-73
2022/03/23 11:37:04;;;;;;;23.80;12.70;;;17.10;59.30;;;;;;4959599;28;20454;-76
2022/03/23 11:39:31;;;;;;;26.50;14.30;;;17.10;58.60;;;;;;4976423;28;20503;-74
2022/03/23 11:41:58;;;;;;;25.33;12.98;;;17.20;57.30;;;;;;4976450;28;20057;-74
2022/03/23 11:44:25;;;;;;;33.33;13.68;;;17.20;57.00;;;;;;4959688;28;20146;-72
2022/03/23 11:46:56;;;;;;;29.80;11.73;;;17.20;58.10;;;;;;4976659;28;20113;-76
2022/03/23 11:49:30;;;;;;;23.50;11.68;;;17.20;53.90;;;;;;4976409;28;20043;-74
2022/03/23 11:52:31;;;;;;;23.30;11.38;;;17.20;56.10;;;;;;4959864;28;20054;-75
2022/03/23 11:57:55;;;;;;;29.63;12.32;;;17.10;53.30;;;;;;4975372;28;20090;-75
2022/03/23 12:00:22;;;;;;;29.25;13.23;;;17.20;54.30;;;;;;4959987;28;20050;-74
2022/03/23 12:02:48;;;;;;;28.92;12.73;;;17.20;53.70;;;;;;4976093;28;20047;-73
2022/03/23 12:05:24;;;;;;;23.88;11.98;;;17.30;54.60;;;;;;4976241;28;20390;-75
2022/03/23 12:07:50;;;;;;;26.02;11.13;;;17.30;55.50;;;;;;4959251;28;20125;-74
2022/03/23 12:10:21;;;;;;;22.10;11.77;;;17.30;57.00;;;;;;4958725;28;20409;-75
2022/03/23 12:12:46;;;;;;;34.38;11.13;;;17.40;56.80;;;;;;4959382;28;20072;-75
2022/03/23 12:15:28;;;;;;;20.40;8.25;;;17.60;56.90;;;;;;4959338;28;20137;-73
2022/03/23 12:17:54;;;;;;;30.75;9.48;;;17.70;55.90;;;;;;4958318;28;20058;-72
2022/03/23 12:20:46;;;;;;;26.65;9.75;;;17.70;53.20;;;;;;4958909;28;20043;-74
2022/03/23 12:23:14;;;;;;;20.23;9.10;;;17.70;53.80;;;;;;4985350;28;20057;-74
2022/03/23 12:26:03;;;;;;;26.80;8.65;;;17.80;55.80;;;;;;4978633;28;20140;-73
2022/03/23 12:28:38;;;;;;;21.83;8.88;;;17.80;55.00;;;;;;4995493;28;20451;-74
2022/03/23 12:31:10;;;;;;;26.73;8.40;;;17.80;54.00;;;;;;4971064;28;20039;-73
2022/03/23 12:34:14;;;;;;;21.00;9.10;;;17.90;55.00;;;;;;4959273;28;20043;-73
2022/03/23 12:36:56;;;;;;;;;;;18.00;55.10;;;;;;4976695;28;20055;-74
2022/03/23 12:39:27;;;;;;;20.20;8.98;;;18.00;52.30;;;;;;4975937;28;20428;-75
2022/03/23 12:41:54;;;;;;;20.67;8.90;;;17.90;54.70;;;;;;4958994;28;20129;-73
2022/03/23 12:44:31;;;;;;;29.65;9.77;;;17.90;56.10;;;;;;4976004;28;20484;-72
2022/03/23 12:47:03;;;;;;;28.30;8.38;;;18.00;54.80;;;;;;4958773;28;20055;-72
2022/03/23 12:58:13;;;;;;;20.20;6.95;;;18.20;54.00;;;;;;4999072;28;20600;-74
2022/03/23 13:00:43;;;;;;;23.25;8.15;;;18.20;54.60;;;;;;4999140;28;20443;-74
2022/03/23 13:03:18;;;;;;;26.20;8.40;;;18.30;53.80;;;;;;4998782;28;20068;-75
2022/03/23 13:05:58;;;;;;;21.42;8.02;;;18.40;54.00;;;;;;4999163;28;20432;-72